sensor_id;sensor_type;location;lat;lon;timestamp;P1;durP1;ratioP1;P2;durP2;ratioP2
4766;SDS011;2397;53.576;9.746;2023-02-08T00:02:26;16.17;;;11.23;;
4766;SDS011;2397;53.576;9.746;2023-02-08T00:04:52;17.37;;;10.97;;
4766;SDS011;2397;53.576;9.746;2023-02-08T00:07:19;21.40;;;11.47;;
4766;SDS011;2397;53.576;9.746;2023-02-08T00:09:45;15.10;;;11.00;;
4766;SDS011;2397;53.576;9.746;2023-02-08T00:12:11;21.70;;;12.00;;
4766;SDS011;2397;53.576;9.746;2023-02-08T00:14:38;17.10;;;10.40;;
4766;SDS011;2397;53.576;9.746;2023-02-08T00:17:04;17.00;;;10.13;;
4766;SDS011;2397;53.576;9.746;2023-02-08T00:19:31;16.40;;;10.87;;
4766;SDS011;2397;53.576;9.746;2023-02-08T00:21:57;15.67;;;10.13;;
4766;SDS011;2397;53.576;9.746;2023-02-08T00:24:23;15.07;;;9.63;;
4766;SDS011;2397;53.576;9.746;2023-02-08T00:26:50;19.17;;;12.00;;
4766;SDS011;2397;53.576;9.746;2023-02-08T00:29:16;19.60;;;11.00;;
4766;SDS011;2397;53.576;9.746;2023-02-08T00:31:43;17.93;;;11.30;;
4766;SDS011;2397;53.576;9.746;2023-02-08T00:34:09;18.53;;;10.80;;
4766;SDS011;2397;53.576;9.746;2023-02-08T00:36:36;21.10;;;10.80;;
4766;SDS011;2397;53.576;9.746;2023-02-08T00:39:02;16.10;;;10.00;;
4766;SDS011;2397;53.576;9.746;2023-02-08T00:41:29;15.23;;;10.70;;
4766;SDS011;2397;53.576;9.746;2023-02-08T00:43:55;14.13;;;9.67;;
4766;SDS011;2397;53.576;9.746;2023-02-08T00:46:21;21.20;;;11.30;;
4766;SDS011;2397;53.576;9.746;2023-02-08T00:48:48;17.27;;;11.37;;
4766;SDS011;2397;53.576;9.746;2023-02-08T00:51:14;21.77;;;11.90;;
4766;SDS011;2397;53.576;9.746;2023-02-08T00:53:42;17.83;;;10.77;;
4766;SDS011;2397;53.576;9.746;2023-02-08T00:56:11;20.20;;;11.43;;
4766;SDS011;2397;53.576;9.746;2023-02-08T00:58:38;23.47;;;12.20;;
4766;SDS011;2397;53.576;9.746;2023-02-08T01:01:05;20.70;;;10.40;;
4766;SDS011;2397;53.576;9.746;2023-02-08T01:03:33;17.13;;;11.00;;
4766;SDS011;2397;53.576;9.746;2023-02-08T01:06:02;17.33;;;11.00;;
4766;SDS011;2397;53.576;9.746;2023-02-08T01:08:31;18.53;;;10.93;;
4766;SDS011;2397;53.576;9.746;2023-02-08T01:11:02;15.77;;;10.13;;
4766;SDS011;2397;53.576;9.746;2023-02-08T01:13:33;16.40;;;11.47;;
4766;SDS011;2397;53.576;9.746;2023-02-08T01:16:05;19.30;;;10.90;;
4766;SDS011;2397;53.576;9.746;2023-02-08T01:18:36;20.70;;;12.43;;
4766;SDS011;2397;53.576;9.746;2023-02-08T01:21:06;20.03;;;11.97;;
4766;SDS011;2397;53.576;9.746;2023-02-08T01:23:34;19.17;;;11.23;;
4766;SDS011;2397;53.576;9.746;2023-02-08T01:26:02;21.93;;;11.40;;
4766;SDS011;2397;53.576;9.746;2023-02-08T01:28:29;20.53;;;11.30;;
4766;SDS011;2397;53.576;9.746;2023-02-08T01:30:56;15.97;;;10.87;;
4766;SDS011;2397;53.576;9.746;2023-02-08T01:33:22;19.90;;;11.80;;
4766;SDS011;2397;53.576;9.746;2023-02-08T01:35:52;18.77;;;11.53;;
4766;SDS011;2397;53.576;9.746;2023-02-08T01:38:18;16.13;;;11.10;;
4766;SDS011;2397;53.576;9.746;2023-02-08T01:40:45;20.10;;;10.03;;
4766;SDS011;2397;53.576;9.746;2023-02-08T01:43:18;15.60;;;9.53;;
4766;SDS011;2397;53.576;9.746;2023-02-08T01:45:49;19.50;;;10.47;;
4766;SDS011;2397;53.576;9.746;2023-02-08T01:48:26;18.70;;;10.80;;
4766;SDS011;2397;53.576;9.746;2023-02-08T01:51:09;14.80;;;9.70;;
4766;SDS011;2397;53.576;9.746;2023-02-08T01:53:40;19.20;;;11.30;;
4766;SDS011;2397;53.576;9.746;2023-02-08T01:56:13;18.27;;;10.10;;
4766;SDS011;2397;53.576;9.746;2023-02-08T01:58:46;15.00;;;10.00;;
4766;SDS011;2397;53.576;9.746;2023-02-08T02:01:16;17.60;;;11.30;;
4766;SDS011;2397;53.576;9.746;2023-02-08T02:03:43;14.90;;;9.77;;
4766;SDS011;2397;53.576;9.746;2023-02-08T02:06:11;20.43;;;10.80;;
4766;SDS011;2397;53.576;9.746;2023-02-08T02:08:43;17.77;;;10.70;;
4766;SDS011;2397;53.576;9.746;2023-02-08T02:11:17;19.17;;;11.20;;
4766;SDS011;2397;53.576;9.746;2023-02-08T02:13:45;18.50;;;11.20;;
4766;SDS011;2397;53.576;9.746;2023-02-08T02:16:13;22.17;;;11.07;;
4766;SDS011;2397;53.576;9.746;2023-02-08T02:18:39;15.93;;;10.50;;
4766;SDS011;2397;53.576;9.746;2023-02-08T02:21:31;15.80;;;10.10;;
4766;SDS011;2397;53.576;9.746;2023-02-08T02:32:51;17.90;;;10.83;;
4766;SDS011;2397;53.576;9.746;2023-02-08T02:35:27;20.03;;;11.00;;
4766;SDS011;2397;53.576;9.746;2023-02-08T02:40:58;14.77;;;10.77;;
4766;SDS011;2397;53.576;9.746;2023-02-08T02:43:46;22.20;;;10.33;;
4766;SDS011;2397;53.576;9.746;2023-02-08T02:46:23;18.70;;;11.23;;
4766;SDS011;2397;53.576;9.746;2023-02-08T02:51:49;15.23;;;10.60;;
4766;SDS011;2397;53.576;9.746;2023-02-08T02:54:23;17.00;;;10.33;;
4766;SDS011;2397;53.576;9.746;2023-02-08T02:56:55;18.23;;;10.50;;
4766;SDS011;2397;53.576;9.746;2023-02-08T02:59:25;16.23;;;10.80;;
4766;SDS011;2397;53.576;9.746;2023-02-08T03:01:53;17.93;;;10.40;;
4766;SDS011;2397;53.576;9.746;2023-02-08T03:21:04;18.33;;;10.73;;
4766;SDS011;2397;53.576;9.746;2023-02-08T03:24:12;22.47;;;11.03;;
4766;SDS011;2397;53.576;9.746;2023-02-08T03:26:56;20.30;;;11.80;;
4766;SDS011;2397;53.576;9.746;2023-02-08T03:32:16;18.33;;;10.80;;
4766;SDS011;2397;53.576;9.746;2023-02-08T03:34:52;20.17;;;11.63;;
4766;SDS011;2397;53.576;9.746;2023-02-08T03:37:29;17.13;;;10.47;;
4766;SDS011;2397;53.576;9.746;2023-02-08T03:40:03;20.30;;;11.03;;
4766;SDS011;2397;53.576;9.746;2023-02-08T03:42:34;20.20;;;11.83;;
4766;SDS011;2397;53.576;9.746;2023-02-08T03:45:14;17.43;;;10.27;;
4766;SDS011;2397;53.576;9.746;2023-02-08T03:47:44;17.27;;;10.40;;
4766;SDS011;2397;53.576;9.746;2023-02-08T03:50:14;18.03;;;10.70;;
4766;SDS011;2397;53.576;9.746;2023-02-08T03:52:45;18.13;;;10.30;;
4766;SDS011;2397;53.576;9.746;2023-02-08T03:55:15;17.00;;;11.13;;
4766;SDS011;2397;53.576;9.746;2023-02-08T03:57:47;19.57;;;11.60;;
4766;SDS011;2397;53.576;9.746;2023-02-08T04:00:18;16.10;;;11.00;;
4766;SDS011;2397;53.576;9.746;2023-02-08T04:02:54;24.50;;;12.40;;
4766;SDS011;2397;53.576;9.746;2023-02-08T04:05:24;20.83;;;11.00;;
4766;SDS011;2397;53.576;9.746;2023-02-08T04:07:51;16.67;;;11.40;;
4766;SDS011;2397;53.576;9.746;2023-02-08T04:10:18;19.50;;;11.87;;
4766;SDS011;2397;53.576;9.746;2023-02-08T04:12:45;21.30;;;12.33;;
4766;SDS011;2397;53.576;9.746;2023-02-08T04:15:13;21.20;;;13.20;;
4766;SDS011;2397;53.576;9.746;2023-02-08T04:17:40;21.50;;;11.93;;
4766;SDS011;2397;53.576;9.746;2023-02-08T04:20:07;22.57;;;14.23;;
4766;SDS011;2397;53.576;9.746;2023-02-08T04:22:34;22.07;;;12.67;;
4766;SDS011;2397;53.576;9.746;2023-02-08T04:25:00;23.80;;;13.00;;
4766;SDS011;2397;53.576;9.746;2023-02-08T04:27:27;26.83;;;14.07;;
4766;SDS011;2397;53.576;9.746;2023-02-08T04:29:53;24.67;;;13.00;;
4766;SDS011;2397;53.576;9.746;2023-02-08T04:32:20;24.10;;;13.20;;
4766;SDS011;2397;53.576;9.746;2023-02-08T04:34:46;31.83;;;16.67;;
4766;SDS011;2397;53.576;9.746;2023-02-08T04:37:12;32.40;;;16.47;;
4766;SDS011;2397;53.576;9.746;2023-02-08T04:39:39;28.17;;;15.80;;
4766;SDS011;2397;53.576;9.746;2023-02-08T04:42:05;25.27;;;14.10;;
4766;SDS011;2397;53.576;9.746;2023-02-08T04:44:33;22.97;;;13.50;;
4766;SDS011;2397;53.576;9.746;2023-02-08T04:46:59;27.50;;;15.83;;
4766;SDS011;2397;53.576;9.746;2023-02-08T04:49:26;29.20;;;14.43;;
4766;SDS011;2397;53.576;9.746;2023-02-08T04:51:52;29.07;;;15.83;;
4766;SDS011;2397;53.576;9.746;2023-02-08T04:54:19;32.60;;;17.97;;
4766;SDS011;2397;53.576;9.746;2023-02-08T04:56:45;29.87;;;16.43;;
4766;SDS011;2397;53.576;9.746;2023-02-08T04:59:11;27.30;;;15.63;;
4766;SDS011;2397;53.576;9.746;2023-02-08T05:01:38;34.27;;;17.27;;
4766;SDS011;2397;53.576;9.746;2023-02-08T05:04:04;50.20;;;20.13;;
4766;SDS011;2397;53.576;9.746;2023-02-08T05:06:31;34.83;;;18.27;;
4766;SDS011;2397;53.576;9.746;2023-02-08T05:08:57;37.47;;;19.67;;
4766;SDS011;2397;53.576;9.746;2023-02-08T05:11:24;43.93;;;18.93;;
4766;SDS011;2397;53.576;9.746;2023-02-08T05:13:51;37.10;;;18.33;;
4766;SDS011;2397;53.576;9.746;2023-02-08T05:16:17;34.77;;;18.03;;
4766;SDS011;2397;53.576;9.746;2023-02-08T05:18:44;28.87;;;18.80;;
4766;SDS011;2397;53.576;9.746;2023-02-08T05:21:10;32.03;;;17.77;;
4766;SDS011;2397;53.576;9.746;2023-02-08T05:23:37;31.63;;;16.93;;
4766;SDS011;2397;53.576;9.746;2023-02-08T05:26:06;35.60;;;17.40;;
4766;SDS011;2397;53.576;9.746;2023-02-08T05:28:34;37.07;;;18.67;;
4766;SDS011;2397;53.576;9.746;2023-02-08T05:31:13;37.90;;;18.80;;
4766;SDS011;2397;53.576;9.746;2023-02-08T05:33:42;34.20;;;18.47;;
4766;SDS011;2397;53.576;9.746;2023-02-08T05:36:08;32.07;;;18.70;;
4766;SDS011;2397;53.576;9.746;2023-02-08T05:38:35;36.20;;;19.17;;
4766;SDS011;2397;53.576;9.746;2023-02-08T05:41:01;35.57;;;19.10;;
4766;SDS011;2397;53.576;9.746;2023-02-08T05:43:28;36.00;;;19.27;;
4766;SDS011;2397;53.576;9.746;2023-02-08T05:45:54;32.80;;;18.63;;
4766;SDS011;2397;53.576;9.746;2023-02-08T05:48:20;29.30;;;16.97;;
4766;SDS011;2397;53.576;9.746;2023-02-08T05:50:47;38.53;;;18.77;;
4766;SDS011;2397;53.576;9.746;2023-02-08T05:53:13;35.13;;;19.20;;
4766;SDS011;2397;53.576;9.746;2023-02-08T05:55:42;35.03;;;19.43;;
4766;SDS011;2397;53.576;9.746;2023-02-08T05:58:10;36.10;;;19.23;;
4766;SDS011;2397;53.576;9.746;2023-02-08T06:00:37;43.23;;;20.40;;
4766;SDS011;2397;53.576;9.746;2023-02-08T06:03:03;37.13;;;18.40;;
4766;SDS011;2397;53.576;9.746;2023-02-08T06:05:30;45.10;;;20.20;;
4766;SDS011;2397;53.576;9.746;2023-02-08T06:07:57;36.40;;;18.00;;
4766;SDS011;2397;53.576;9.746;2023-02-08T06:10:23;35.47;;;20.00;;
4766;SDS011;2397;53.576;9.746;2023-02-08T06:12:49;36.90;;;19.50;;
4766;SDS011;2397;53.576;9.746;2023-02-08T06:15:16;30.47;;;17.20;;
4766;SDS011;2397;53.576;9.746;2023-02-08T06:17:43;33.20;;;19.80;;
4766;SDS011;2397;53.576;9.746;2023-02-08T06:20:09;37.10;;;19.07;;
4766;SDS011;2397;53.576;9.746;2023-02-08T06:22:36;31.07;;;18.07;;
4766;SDS011;2397;53.576;9.746;2023-02-08T06:25:03;41.47;;;18.90;;
4766;SDS011;2397;53.576;9.746;2023-02-08T06:27:29;39.43;;;19.50;;
4766;SDS011;2397;53.576;9.746;2023-02-08T06:29:56;36.80;;;16.60;;
4766;SDS011;2397;53.576;9.746;2023-02-08T06:32:22;36.33;;;17.43;;
4766;SDS011;2397;53.576;9.746;2023-02-08T06:34:48;35.60;;;18.30;;
4766;SDS011;2397;53.576;9.746;2023-02-08T06:37:16;40.90;;;18.67;;
4766;SDS011;2397;53.576;9.746;2023-02-08T06:39:43;36.90;;;18.47;;
4766;SDS011;2397;53.576;9.746;2023-02-08T06:42:10;41.33;;;19.90;;
4766;SDS011;2397;53.576;9.746;2023-02-08T06:44:37;39.53;;;19.10;;
4766;SDS011;2397;53.576;9.746;2023-02-08T06:47:16;43.70;;;19.83;;
4766;SDS011;2397;53.576;9.746;2023-02-08T06:49:43;38.70;;;18.73;;
4766;SDS011;2397;53.576;9.746;2023-02-08T06:52:09;38.60;;;18.53;;
4766;SDS011;2397;53.576;9.746;2023-02-08T06:54:35;38.10;;;20.23;;
4766;SDS011;2397;53.576;9.746;2023-02-08T06:57:02;40.80;;;19.40;;
4766;SDS011;2397;53.576;9.746;2023-02-08T06:59:28;34.27;;;18.93;;
4766;SDS011;2397;53.576;9.746;2023-02-08T07:01:55;38.43;;;19.63;;
4766;SDS011;2397;53.576;9.746;2023-02-08T07:04:21;37.17;;;19.63;;
4766;SDS011;2397;53.576;9.746;2023-02-08T07:06:48;40.57;;;19.67;;
4766;SDS011;2397;53.576;9.746;2023-02-08T07:09:15;33.80;;;18.53;;
4766;SDS011;2397;53.576;9.746;2023-02-08T07:11:42;35.63;;;18.97;;
4766;SDS011;2397;53.576;9.746;2023-02-08T07:14:12;43.97;;;20.17;;
4766;SDS011;2397;53.576;9.746;2023-02-08T07:16:40;38.80;;;18.90;;
4766;SDS011;2397;53.576;9.746;2023-02-08T07:19:06;35.23;;;18.00;;
4766;SDS011;2397;53.576;9.746;2023-02-08T07:21:33;38.00;;;18.70;;
4766;SDS011;2397;53.576;9.746;2023-02-08T07:23:59;37.90;;;19.03;;
4766;SDS011;2397;53.576;9.746;2023-02-08T07:26:26;34.07;;;18.77;;
4766;SDS011;2397;53.576;9.746;2023-02-08T07:28:52;40.43;;;17.63;;
4766;SDS011;2397;53.576;9.746;2023-02-08T07:31:19;43.20;;;20.17;;
4766;SDS011;2397;53.576;9.746;2023-02-08T07:33:45;40.50;;;19.73;;
4766;SDS011;2397;53.576;9.746;2023-02-08T07:36:11;39.20;;;18.90;;
4766;SDS011;2397;53.576;9.746;2023-02-08T07:38:38;39.83;;;18.40;;
4766;SDS011;2397;53.576;9.746;2023-02-08T07:41:09;37.60;;;17.93;;
4766;SDS011;2397;53.576;9.746;2023-02-08T07:43:38;38.60;;;17.07;;
4766;SDS011;2397;53.576;9.746;2023-02-08T07:46:10;33.03;;;18.10;;
4766;SDS011;2397;53.576;9.746;2023-02-08T07:48:38;38.80;;;19.30;;
4766;SDS011;2397;53.576;9.746;2023-02-08T07:51:05;38.00;;;19.70;;
4766;SDS011;2397;53.576;9.746;2023-02-08T07:53:33;36.13;;;19.73;;
4766;SDS011;2397;53.576;9.746;2023-02-08T07:56:00;36.40;;;17.20;;
4766;SDS011;2397;53.576;9.746;2023-02-08T07:58:26;32.37;;;18.93;;
4766;SDS011;2397;53.576;9.746;2023-02-08T08:00:53;39.00;;;17.93;;
4766;SDS011;2397;53.576;9.746;2023-02-08T08:03:20;37.67;;;19.40;;
4766;SDS011;2397;53.576;9.746;2023-02-08T08:05:47;38.33;;;18.80;;
4766;SDS011;2397;53.576;9.746;2023-02-08T08:08:18;38.00;;;16.90;;
4766;SDS011;2397;53.576;9.746;2023-02-08T08:10:44;36.70;;;19.03;;
4766;SDS011;2397;53.576;9.746;2023-02-08T08:13:11;38.83;;;18.60;;
4766;SDS011;2397;53.576;9.746;2023-02-08T08:15:38;44.93;;;20.13;;
4766;SDS011;2397;53.576;9.746;2023-02-08T08:18:05;37.93;;;20.23;;
4766;SDS011;2397;53.576;9.746;2023-02-08T08:20:32;38.70;;;19.03;;
4766;SDS011;2397;53.576;9.746;2023-02-08T08:22:59;42.07;;;19.50;;
4766;SDS011;2397;53.576;9.746;2023-02-08T08:25:26;31.90;;;18.13;;
4766;SDS011;2397;53.576;9.746;2023-02-08T08:27:53;36.73;;;19.60;;
4766;SDS011;2397;53.576;9.746;2023-02-08T08:30:20;36.83;;;20.40;;
4766;SDS011;2397;53.576;9.746;2023-02-08T08:32:46;38.13;;;18.50;;
4766;SDS011;2397;53.576;9.746;2023-02-08T08:35:13;33.80;;;18.43;;
4766;SDS011;2397;53.576;9.746;2023-02-08T08:37:39;41.70;;;19.47;;
4766;SDS011;2397;53.576;9.746;2023-02-08T08:40:06;36.43;;;19.03;;
4766;SDS011;2397;53.576;9.746;2023-02-08T08:42:33;32.23;;;17.73;;
4766;SDS011;2397;53.576;9.746;2023-02-08T08:45:02;33.27;;;17.60;;
4766;SDS011;2397;53.576;9.746;2023-02-08T08:47:29;36.17;;;18.00;;
4766;SDS011;2397;53.576;9.746;2023-02-08T08:49:55;39.03;;;19.50;;
4766;SDS011;2397;53.576;9.746;2023-02-08T08:52:22;39.00;;;18.30;;
4766;SDS011;2397;53.576;9.746;2023-02-08T08:54:48;34.73;;;18.93;;
4766;SDS011;2397;53.576;9.746;2023-02-08T08:57:15;37.00;;;18.90;;
4766;SDS011;2397;53.576;9.746;2023-02-08T08:59:42;46.03;;;18.80;;
4766;SDS011;2397;53.576;9.746;2023-02-08T09:02:10;38.60;;;18.87;;
4766;SDS011;2397;53.576;9.746;2023-02-08T09:04:37;40.73;;;19.03;;
4766;SDS011;2397;53.576;9.746;2023-02-08T09:07:06;34.40;;;16.77;;
4766;SDS011;2397;53.576;9.746;2023-02-08T09:09:34;33.53;;;17.60;;
4766;SDS011;2397;53.576;9.746;2023-02-08T09:12:01;36.97;;;18.13;;
4766;SDS011;2397;53.576;9.746;2023-02-08T09:14:28;40.80;;;17.77;;
4766;SDS011;2397;53.576;9.746;2023-02-08T09:16:54;37.47;;;19.07;;
4766;SDS011;2397;53.576;9.746;2023-02-08T09:19:20;30.97;;;18.03;;
4766;SDS011;2397;53.576;9.746;2023-02-08T09:21:47;33.00;;;19.20;;
4766;SDS011;2397;53.576;9.746;2023-02-08T09:24:13;43.80;;;19.63;;
4766;SDS011;2397;53.576;9.746;2023-02-08T09:26:41;37.10;;;18.90;;
4766;SDS011;2397;53.576;9.746;2023-02-08T09:29:07;40.00;;;19.57;;
4766;SDS011;2397;53.576;9.746;2023-02-08T09:31:34;34.90;;;19.67;;
4766;SDS011;2397;53.576;9.746;2023-02-08T09:34:03;31.53;;;16.47;;
4766;SDS011;2397;53.576;9.746;2023-02-08T09:36:31;34.43;;;18.17;;
4766;SDS011;2397;53.576;9.746;2023-02-08T09:39:00;36.73;;;18.57;;
4766;SDS011;2397;53.576;9.746;2023-02-08T09:41:45;36.53;;;18.40;;
4766;SDS011;2397;53.576;9.746;2023-02-08T09:47:17;42.77;;;19.10;;
4766;SDS011;2397;53.576;9.746;2023-02-08T09:50:09;44.77;;;18.70;;
4766;SDS011;2397;53.576;9.746;2023-02-08T09:52:41;41.97;;;20.37;;
4766;SDS011;2397;53.576;9.746;2023-02-08T09:55:18;35.30;;;17.43;;
4766;SDS011;2397;53.576;9.746;2023-02-08T09:57:51;41.70;;;19.63;;
4766;SDS011;2397;53.576;9.746;2023-02-08T10:00:28;33.33;;;18.90;;
4766;SDS011;2397;53.576;9.746;2023-02-08T10:02:59;34.70;;;17.70;;
4766;SDS011;2397;53.576;9.746;2023-02-08T10:05:28;34.07;;;17.37;;
4766;SDS011;2397;53.576;9.746;2023-02-08T10:07:56;31.00;;;17.20;;
4766;SDS011;2397;53.576;9.746;2023-02-08T10:10:32;36.33;;;17.63;;
4766;SDS011;2397;53.576;9.746;2023-02-08T10:16:16;40.30;;;18.90;;
4766;SDS011;2397;53.576;9.746;2023-02-08T10:18:49;40.20;;;18.17;;
4766;SDS011;2397;53.576;9.746;2023-02-08T10:24:43;32.47;;;16.27;;
4766;SDS011;2397;53.576;9.746;2023-02-08T10:27:34;28.60;;;17.17;;
4766;SDS011;2397;53.576;9.746;2023-02-08T10:33:17;33.47;;;18.77;;
4766;SDS011;2397;53.576;9.746;2023-02-08T10:35:49;29.63;;;15.80;;
4766;SDS011;2397;53.576;9.746;2023-02-08T10:40:55;36.23;;;16.83;;
4766;SDS011;2397;53.576;9.746;2023-02-08T10:43:31;30.70;;;16.17;;
4766;SDS011;2397;53.576;9.746;2023-02-08T10:46:06;24.87;;;15.30;;
4766;SDS011;2397;53.576;9.746;2023-02-08T10:48:51;31.90;;;15.50;;
4766;SDS011;2397;53.576;9.746;2023-02-08T10:51:25;28.47;;;16.73;;
4766;SDS011;2397;53.576;9.746;2023-02-08T10:53:51;31.07;;;16.63;;
4766;SDS011;2397;53.576;9.746;2023-02-08T10:56:33;25.30;;;15.83;;
4766;SDS011;2397;53.576;9.746;2023-02-08T10:59:20;30.83;;;15.57;;
4766;SDS011;2397;53.576;9.746;2023-02-08T11:01:52;24.83;;;15.87;;
4766;SDS011;2397;53.576;9.746;2023-02-08T11:04:20;24.00;;;14.17;;
4766;SDS011;2397;53.576;9.746;2023-02-08T11:06:47;29.93;;;15.87;;
4766;SDS011;2397;53.576;9.746;2023-02-08T11:09:25;24.03;;;14.63;;
4766;SDS011;2397;53.576;9.746;2023-02-08T11:11:54;25.90;;;16.90;;
4766;SDS011;2397;53.576;9.746;2023-02-08T11:17:21;32.83;;;18.07;;
4766;SDS011;2397;53.576;9.746;2023-02-08T11:19:52;33.60;;;16.50;;
4766;SDS011;2397;53.576;9.746;2023-02-08T11:22:19;31.53;;;16.07;;
4766;SDS011;2397;53.576;9.746;2023-02-08T11:24:58;30.80;;;16.13;;
4766;SDS011;2397;53.576;9.746;2023-02-08T11:32:38;37.27;;;20.23;;
4766;SDS011;2397;53.576;9.746;2023-02-08T11:35:23;31.67;;;19.00;;
4766;SDS011;2397;53.576;9.746;2023-02-08T11:37:55;39.83;;;20.43;;
4766;SDS011;2397;53.576;9.746;2023-02-08T11:40:25;36.37;;;19.47;;
4766;SDS011;2397;53.576;9.746;2023-02-08T11:42:56;31.87;;;17.10;;
4766;SDS011;2397;53.576;9.746;2023-02-08T11:45:24;35.23;;;18.63;;
4766;SDS011;2397;53.576;9.746;2023-02-08T11:47:54;37.30;;;19.23;;
4766;SDS011;2397;53.576;9.746;2023-02-08T11:50:23;30.17;;;17.60;;
4766;SDS011;2397;53.576;9.746;2023-02-08T11:53:03;40.53;;;20.07;;
4766;SDS011;2397;53.576;9.746;2023-02-08T11:55:32;36.00;;;17.87;;
4766;SDS011;2397;53.576;9.746;2023-02-08T11:58:01;34.97;;;18.97;;
4766;SDS011;2397;53.576;9.746;2023-02-08T12:00:31;34.57;;;18.80;;
4766;SDS011;2397;53.576;9.746;2023-02-08T12:14:50;35.33;;;17.60;;
4766;SDS011;2397;53.576;9.746;2023-02-08T12:20:19;36.13;;;17.53;;
4766;SDS011;2397;53.576;9.746;2023-02-08T12:25:46;33.50;;;16.40;;
4766;SDS011;2397;53.576;9.746;2023-02-08T12:31:14;34.13;;;18.00;;
4766;SDS011;2397;53.576;9.746;2023-02-08T12:37:01;40.43;;;17.07;;
4766;SDS011;2397;53.576;9.746;2023-02-08T12:43:12;37.20;;;17.37;;
4766;SDS011;2397;53.576;9.746;2023-02-08T12:54:32;37.80;;;17.50;;
4766;SDS011;2397;53.576;9.746;2023-02-08T12:57:04;31.73;;;16.33;;
4766;SDS011;2397;53.576;9.746;2023-02-08T12:59:39;27.93;;;16.43;;
4766;SDS011;2397;53.576;9.746;2023-02-08T13:02:25;30.50;;;17.00;;
4766;SDS011;2397;53.576;9.746;2023-02-08T13:04:58;31.20;;;16.83;;
4766;SDS011;2397;53.576;9.746;2023-02-08T13:07:37;30.43;;;16.97;;
4766;SDS011;2397;53.576;9.746;2023-02-08T13:10:24;25.80;;;14.47;;
4766;SDS011;2397;53.576;9.746;2023-02-08T13:12:55;31.60;;;16.07;;
4766;SDS011;2397;53.576;9.746;2023-02-08T13:15:34;28.47;;;15.90;;
4766;SDS011;2397;53.576;9.746;2023-02-08T13:20:55;32.20;;;16.00;;
4766;SDS011;2397;53.576;9.746;2023-02-08T13:23:26;26.63;;;15.17;;
4766;SDS011;2397;53.576;9.746;2023-02-08T13:25:59;27.93;;;14.43;;
4766;SDS011;2397;53.576;9.746;2023-02-08T13:28:29;28.70;;;14.07;;
4766;SDS011;2397;53.576;9.746;2023-02-08T13:31:06;27.50;;;15.67;;
4766;SDS011;2397;53.576;9.746;2023-02-08T13:36:37;27.00;;;14.40;;
4766;SDS011;2397;53.576;9.746;2023-02-08T13:39:08;27.83;;;13.33;;
4766;SDS011;2397;53.576;9.746;2023-02-08T13:41:54;24.60;;;13.63;;
4766;SDS011;2397;53.576;9.746;2023-02-08T13:44:34;21.60;;;12.20;;
4766;SDS011;2397;53.576;9.746;2023-02-08T13:47:04;21.00;;;10.63;;
4766;SDS011;2397;53.576;9.746;2023-02-08T14:03:19;18.67;;;10.30;;
4766;SDS011;2397;53.576;9.746;2023-02-08T14:05:59;13.37;;;8.80;;
4766;SDS011;2397;53.576;9.746;2023-02-08T14:08:49;18.43;;;9.40;;
4766;SDS011;2397;53.576;9.746;2023-02-08T14:11:35;17.47;;;8.80;;
4766;SDS011;2397;53.576;9.746;2023-02-08T14:16:45;12.60;;;8.53;;
4766;SDS011;2397;53.576;9.746;2023-02-08T14:19:36;15.73;;;9.53;;
4766;SDS011;2397;53.576;9.746;2023-02-08T14:22:15;18.77;;;9.50;;
4766;SDS011;2397;53.576;9.746;2023-02-08T14:24:47;11.90;;;8.23;;
4766;SDS011;2397;53.576;9.746;2023-02-08T14:27:29;14.27;;;8.50;;
4766;SDS011;2397;53.576;9.746;2023-02-08T14:32:46;12.87;;;8.20;;
4766;SDS011;2397;53.576;9.746;2023-02-08T14:35:22;13.97;;;8.00;;
4766;SDS011;2397;53.576;9.746;2023-02-08T14:43:32;13.37;;;6.97;;
4766;SDS011;2397;53.576;9.746;2023-02-08T14:49:07;11.00;;;7.30;;
4766;SDS011;2397;53.576;9.746;2023-02-08T14:51:37;13.00;;;7.07;;
4766;SDS011;2397;53.576;9.746;2023-02-08T14:54:20;14.00;;;6.97;;
4766;SDS011;2397;53.576;9.746;2023-02-08T14:56:59;13.07;;;6.90;;
4766;SDS011;2397;53.576;9.746;2023-02-08T14:59:29;11.87;;;7.20;;
4766;SDS011;2397;53.576;9.746;2023-02-08T15:02:03;12.63;;;6.73;;
4766;SDS011;2397;53.576;9.746;2023-02-08T15:04:43;12.17;;;7.20;;
4766;SDS011;2397;53.576;9.746;2023-02-08T15:07:16;14.33;;;8.40;;
4766;SDS011;2397;53.576;9.746;2023-02-08T15:09:53;9.40;;;6.63;;
4766;SDS011;2397;53.576;9.746;2023-02-08T15:12:33;12.50;;;7.60;;
4766;SDS011;2397;53.576;9.746;2023-02-08T15:15:02;9.53;;;6.47;;
4766;SDS011;2397;53.576;9.746;2023-02-08T15:17:34;9.23;;;6.33;;
4766;SDS011;2397;53.576;9.746;2023-02-08T15:20:06;10.97;;;7.30;;
4766;SDS011;2397;53.576;9.746;2023-02-08T15:22:42;13.60;;;7.07;;
4766;SDS011;2397;53.576;9.746;2023-02-08T15:25:27;10.10;;;6.03;;
4766;SDS011;2397;53.576;9.746;2023-02-08T15:27:57;12.53;;;6.50;;
4766;SDS011;2397;53.576;9.746;2023-02-08T15:30:33;10.27;;;5.90;;
4766;SDS011;2397;53.576;9.746;2023-02-08T15:33:02;11.00;;;6.23;;
4766;SDS011;2397;53.576;9.746;2023-02-08T15:35:34;10.57;;;6.33;;
4766;SDS011;2397;53.576;9.746;2023-02-08T15:38:01;12.20;;;6.80;;
4766;SDS011;2397;53.576;9.746;2023-02-08T15:40:32;11.50;;;7.00;;
4766;SDS011;2397;53.576;9.746;2023-02-08T15:43:08;9.53;;;6.57;;
4766;SDS011;2397;53.576;9.746;2023-02-08T15:45:37;8.93;;;6.13;;
4766;SDS011;2397;53.576;9.746;2023-02-08T15:48:04;13.10;;;6.70;;
4766;SDS011;2397;53.576;9.746;2023-02-08T15:50:32;12.47;;;6.87;;
4766;SDS011;2397;53.576;9.746;2023-02-08T15:53:00;15.33;;;7.80;;
4766;SDS011;2397;53.576;9.746;2023-02-08T15:55:30;16.30;;;7.00;;
4766;SDS011;2397;53.576;9.746;2023-02-08T15:58:04;12.20;;;7.70;;
4766;SDS011;2397;53.576;9.746;2023-02-08T16:00:34;9.57;;;6.50;;
4766;SDS011;2397;53.576;9.746;2023-02-08T16:03:08;13.87;;;6.70;;
4766;SDS011;2397;53.576;9.746;2023-02-08T16:05:47;16.00;;;7.30;;
4766;SDS011;2397;53.576;9.746;2023-02-08T16:08:21;13.50;;;6.63;;
4766;SDS011;2397;53.576;9.746;2023-02-08T16:10:58;10.87;;;6.80;;
4766;SDS011;2397;53.576;9.746;2023-02-08T16:13:31;11.30;;;6.80;;
4766;SDS011;2397;53.576;9.746;2023-02-08T16:18:40;15.83;;;8.77;;
4766;SDS011;2397;53.576;9.746;2023-02-08T16:23:50;17.80;;;8.80;;
4766;SDS011;2397;53.576;9.746;2023-02-08T16:28:58;20.63;;;10.83;;
4766;SDS011;2397;53.576;9.746;2023-02-08T16:31:28;16.50;;;9.90;;
4766;SDS011;2397;53.576;9.746;2023-02-08T16:33:57;17.50;;;9.13;;
4766;SDS011;2397;53.576;9.746;2023-02-08T16:36:29;16.30;;;9.60;;
4766;SDS011;2397;53.576;9.746;2023-02-08T16:41:58;19.33;;;10.10;;
4766;SDS011;2397;53.576;9.746;2023-02-08T16:44:41;18.70;;;10.33;;
4766;SDS011;2397;53.576;9.746;2023-02-08T16:47:26;20.83;;;10.67;;
4766;SDS011;2397;53.576;9.746;2023-02-08T16:49:59;19.10;;;9.23;;
4766;SDS011;2397;53.576;9.746;2023-02-08T16:52:25;19.10;;;10.20;;
4766;SDS011;2397;53.576;9.746;2023-02-08T16:54:52;22.00;;;11.50;;
4766;SDS011;2397;53.576;9.746;2023-02-08T16:57:18;20.43;;;11.43;;
4766;SDS011;2397;53.576;9.746;2023-02-08T16:59:45;19.27;;;11.50;;
4766;SDS011;2397;53.576;9.746;2023-02-08T17:02:11;18.17;;;11.00;;
4766;SDS011;2397;53.576;9.746;2023-02-08T17:04:38;18.03;;;10.70;;
4766;SDS011;2397;53.576;9.746;2023-02-08T17:07:05;21.53;;;12.23;;
4766;SDS011;2397;53.576;9.746;2023-02-08T17:09:41;21.77;;;12.47;;
4766;SDS011;2397;53.576;9.746;2023-02-08T17:12:08;18.07;;;11.40;;
4766;SDS011;2397;53.576;9.746;2023-02-08T17:14:47;16.60;;;10.30;;
4766;SDS011;2397;53.576;9.746;2023-02-08T17:17:14;19.60;;;11.17;;
4766;SDS011;2397;53.576;9.746;2023-02-08T17:19:40;19.33;;;10.27;;
4766;SDS011;2397;53.576;9.746;2023-02-08T17:22:09;19.10;;;11.73;;
4766;SDS011;2397;53.576;9.746;2023-02-08T17:24:35;21.53;;;11.40;;
4766;SDS011;2397;53.576;9.746;2023-02-08T17:27:04;18.70;;;9.70;;
4766;SDS011;2397;53.576;9.746;2023-02-08T17:29:30;18.43;;;11.20;;